Terminal Aerodrome Forecast
Issued by NWS Paducah, KY

Home | Current Version | Previous Version | Graphics & Text | Print | Product List | Glossary On
Versions: 1 2 3 4 5 6 7 8 9 10 11 12 13 14 15 16 17 18 19 20 21 22 23 24
000
FTUS43 KPAH 220700 AAA
TAFPAH
TAF AMD
KPAH 220734Z 2208/2306 13004KT P6SM BKN025 OVC070
     FM221000 15007KT P6SM BKN013 OVC020
      TEMPO 2217/2221 3SM -RA BR OVC013
     FM230000 15006KT 2SM -RA BR OVC011=

USA.gov is the U.S. government's official web portal to all federal, state and local government web resources and services.